Terminal Aerodrome Forecast
Issued by NWS Twin Cities, MN

Home | Current Version | Previous Version | Graphics & Text | Print | Product List | Glossary On
Versions: 1 2 3 4 5 6 7 8 9 10 11 12 13 14 15 16 17 18 19
000
FTUS43 KMPX 222320
TAFEAU
TAF
KEAU 222320Z 2300/2324 32007KT P6SM SCT050 BKN100
      TEMPO 2300/2302 6SM -SHRA SCT035 BKN050
     FM230300 29004KT P6SM BKN120
     FM231400 29014G22KT P6SM SCT025 OVC050=

USA.gov is the U.S. government's official web portal to all federal, state and local government web resources and services.